createdAt,value
2019-03-13T00:00:52.782Z,3.87
2019-03-13T00:03:22.461Z,5.63
2019-03-13T00:05:51.883Z,3.50
2019-03-13T00:08:21.335Z,6.37
2019-03-13T00:10:50.945Z,5.07
2019-03-13T00:13:20.386Z,3.47
2019-03-13T00:15:50.066Z,3.70
2019-03-13T00:18:19.630Z,3.63
2019-03-13T00:20:49.083Z,4.47
2019-03-13T00:23:18.570Z,4.40
2019-03-13T00:25:48.003Z,3.90
2019-03-13T00:28:17.482Z,4.60
2019-03-13T00:30:46.954Z,6.50
2019-03-13T00:33:16.461Z,7.27
2019-03-13T00:35:45.931Z,6.27
2019-03-13T00:38:15.375Z,5.37
2019-03-13T00:40:44.864Z,5.03
2019-03-13T00:43:14.307Z,6.27
2019-03-13T00:45:43.886Z,9.50
2019-03-13T00:48:12.785Z,4.40
2019-03-13T00:50:42.261Z,7.17
2019-03-13T00:53:11.765Z,5.47
2019-03-13T00:55:41.260Z,5.03
2019-03-13T00:58:10.742Z,7.47
2019-03-13T01:01:17.794Z,7.73
2019-03-13T01:03:59.761Z,5.80
2019-03-13T01:06:33.231Z,10.40
2019-03-13T01:09:04.362Z,6.37
2019-03-13T01:11:33.802Z,7.37
2019-03-13T01:14:03.260Z,6.33
2019-03-13T01:16:32.730Z,7.57
2019-03-13T01:19:02.241Z,6.90
2019-03-13T01:21:31.830Z,9.50
2019-03-13T01:24:01.344Z,7.50
2019-03-13T01:26:30.777Z,6.43
2019-03-13T01:29:00.257Z,6.43
2019-03-13T01:31:48.842Z,7.50
2019-03-13T01:34:43.102Z,8.63
2019-03-13T01:37:12.567Z,8.03
2019-03-13T01:39:42.071Z,8.43
2019-03-13T01:42:11.536Z,8.90
2019-03-13T01:44:41.046Z,7.83
2019-03-13T01:47:10.501Z,7.93
2019-03-13T01:49:40.052Z,6.90
2019-03-13T01:52:09.525Z,5.50
2019-03-13T01:54:39.045Z,5.53
2019-03-13T01:57:08.483Z,6.20
2019-03-13T01:59:37.923Z,6.37
2019-03-13T02:02:07.393Z,10.87
2019-03-13T02:04:36.875Z,8.63
2019-03-13T02:07:06.575Z,8.03
2019-03-13T02:09:36.049Z,10.03
2019-03-13T02:12:05.518Z,5.87
2019-03-13T02:14:35.011Z,7.53
2019-03-13T02:17:04.464Z,6.00
2019-03-13T02:19:35.206Z,9.17
2019-03-13T02:22:04.879Z,8.77
2019-03-13T02:24:34.339Z,9.67
2019-03-13T02:27:03.808Z,6.33
2019-03-13T02:29:33.318Z,8.00
2019-03-13T02:32:02.795Z,11.37
2019-03-13T02:34:32.274Z,8.93
2019-03-13T02:37:01.735Z,9.33
2019-03-13T02:39:31.231Z,11.73
2019-03-13T02:42:00.697Z,8.63
2019-03-13T02:44:30.142Z,12.27
2019-03-13T02:46:58.961Z,8.60
2019-03-13T02:49:28.382Z,10.17
2019-03-13T02:51:57.988Z,9.40
2019-03-13T02:54:27.477Z,8.50
2019-03-13T02:56:56.864Z,9.53
2019-03-13T02:59:26.294Z,10.10
2019-03-13T03:02:13.320Z,9.20
2019-03-13T03:04:42.761Z,11.00
2019-03-13T03:07:12.978Z,9.30
2019-03-13T03:09:42.721Z,10.23
2019-03-13T03:12:12.210Z,10.93
2019-03-13T03:14:58.815Z,10.63
2019-03-13T03:17:28.207Z,9.67
2019-03-13T03:19:57.689Z,10.37
2019-03-13T03:22:27.189Z,14.37
2019-03-13T03:24:56.634Z,11.10
2019-03-13T03:27:26.106Z,10.43
2019-03-13T03:29:55.669Z,10.43
2019-03-13T03:32:25.167Z,10.80
2019-03-13T03:34:54.612Z,10.10
2019-03-13T03:37:24.149Z,11.10
2019-03-13T03:39:53.666Z,16.50
2019-03-13T03:42:23.113Z,11.23
2019-03-13T03:44:52.622Z,13.93
2019-03-13T03:47:22.227Z,10.17
2019-03-13T03:49:51.820Z,9.93
2019-03-13T03:52:21.467Z,8.13
2019-03-13T03:54:50.957Z,8.03
2019-03-13T03:57:20.446Z,9.67
2019-03-13T03:59:49.915Z,12.03
2019-03-13T04:02:19.386Z,7.70
2019-03-13T04:04:48.804Z,8.90
2019-03-13T04:07:17.631Z,8.70
2019-03-13T04:09:47.126Z,8.77
2019-03-13T04:12:16.576Z,14.67
2019-03-13T04:14:46.002Z,8.90
2019-03-13T04:17:15.528Z,11.50
2019-03-13T04:19:44.967Z,9.03
2019-03-13T04:22:14.498Z,10.70
2019-03-13T04:24:43.993Z,13.27
2019-03-13T04:27:13.468Z,9.17
2019-03-13T04:29:43.100Z,8.70
2019-03-13T04:32:12.631Z,14.17
2019-03-13T04:34:42.064Z,9.13
2019-03-13T04:37:11.520Z,8.30
2019-03-13T04:39:40.998Z,10.20
2019-03-13T04:42:10.425Z,8.60
2019-03-13T04:44:39.922Z,11.87
2019-03-13T04:47:09.385Z,10.17
2019-03-13T04:49:38.881Z,13.47
2019-03-13T04:52:08.358Z,8.97
2019-03-13T04:54:37.804Z,7.43
2019-03-13T04:57:06.621Z,8.07
2019-03-13T04:59:36.072Z,12.73
2019-03-13T05:02:05.502Z,9.17
2019-03-13T05:04:35.032Z,14.97
2019-03-13T05:07:04.501Z,13.07
2019-03-13T05:09:38.931Z,12.10
2019-03-13T05:12:08.414Z,6.77
2019-03-13T05:14:37.975Z,11.22
2019-03-13T05:17:07.429Z,9.60
2019-03-13T05:19:36.913Z,12.47
2019-03-13T05:22:06.390Z,9.40
2019-03-13T05:24:35.855Z,10.73
2019-03-13T05:27:05.352Z,18.13
2019-03-13T05:29:34.847Z,15.77
2019-03-13T05:32:04.389Z,12.07
2019-03-13T05:34:33.901Z,11.23
2019-03-13T05:37:03.490Z,9.83
2019-03-13T05:39:32.989Z,13.77
2019-03-13T05:42:02.430Z,9.33
2019-03-13T05:44:31.846Z,13.27
2019-03-13T05:47:01.302Z,12.53
2019-03-13T05:49:30.754Z,12.93
2019-03-13T05:52:00.273Z,16.53
2019-03-13T05:54:30.266Z,15.00
2019-03-13T05:56:59.720Z,9.73
2019-03-13T05:59:29.138Z,11.77
2019-03-13T06:01:58.594Z,16.20
2019-03-13T06:04:36.022Z,15.37
2019-03-13T06:07:05.477Z,14.70
2019-03-13T06:09:34.918Z,15.40
2019-03-13T06:12:04.419Z,11.30
2019-03-13T06:14:33.848Z,8.23
2019-03-13T06:17:03.319Z,10.10
2019-03-13T06:19:32.773Z,16.10
2019-03-13T06:22:02.203Z,14.40
2019-03-13T06:24:31.717Z,9.90
2019-03-13T06:27:01.157Z,12.27
2019-03-13T06:29:31.912Z,7.87
2019-03-13T06:32:01.586Z,8.50
2019-03-13T06:34:31.069Z,12.07
2019-03-13T06:37:00.506Z,10.87
2019-03-13T06:39:32.093Z,15.77
2019-03-13T06:42:01.231Z,12.77
2019-03-13T06:44:30.674Z,9.53
2019-03-13T06:47:00.148Z,11.23
2019-03-13T06:49:29.597Z,17.40
2019-03-13T06:51:59.120Z,10.87
2019-03-13T06:54:28.590Z,12.33
2019-03-13T06:56:58.002Z,13.50
2019-03-13T06:59:39.259Z,9.43
2019-03-13T07:02:27.635Z,14.80
2019-03-13T07:05:24.831Z,12.23
2019-03-13T07:08:03.095Z,10.27
2019-03-13T07:10:54.745Z,13.87
2019-03-13T07:13:42.598Z,17.57
2019-03-13T07:16:20.938Z,16.23
2019-03-13T07:18:58.471Z,16.63
2019-03-13T07:21:34.392Z,13.13
2019-03-13T07:24:25.103Z,15.40
2019-03-13T07:27:07.864Z,16.30
2019-03-13T07:29:48.819Z,13.30
2019-03-13T07:32:27.179Z,13.80
2019-03-13T07:35:12.916Z,20.80
2019-03-13T07:37:53.373Z,16.20
2019-03-13T07:40:53.766Z,14.13
2019-03-13T07:43:42.200Z,12.43
2019-03-13T07:46:33.338Z,16.63
2019-03-13T07:49:24.807Z,11.13
2019-03-13T07:52:11.636Z,18.83
2019-03-13T07:55:00.027Z,13.90
2019-03-13T07:57:42.093Z,16.63
2019-03-13T08:00:19.799Z,18.30
2019-03-13T08:03:08.325Z,13.00
2019-03-13T08:05:56.727Z,13.00
2019-03-13T08:08:51.282Z,16.33
2019-03-13T08:11:37.500Z,9.80
2019-03-13T08:14:32.210Z,9.13
2019-03-13T08:17:11.954Z,16.20
2019-03-13T08:19:59.173Z,18.60
2019-03-13T08:22:53.620Z,10.80
2019-03-13T08:25:29.761Z,17.67
2019-03-13T08:28:18.184Z,11.30
2019-03-13T08:30:58.452Z,10.80
2019-03-13T08:33:52.618Z,11.93
2019-03-13T08:36:40.924Z,13.80
2019-03-13T08:39:23.366Z,13.80
2019-03-13T08:42:11.731Z,13.47
2019-03-13T08:44:50.225Z,13.13
2019-03-13T08:47:36.931Z,13.83
2019-03-13T08:50:31.672Z,15.07
2019-03-13T08:53:10.255Z,11.83
2019-03-13T08:55:57.195Z,13.60
2019-03-13T08:58:38.875Z,16.07
2019-03-13T09:01:26.580Z,13.93
2019-03-13T09:04:14.932Z,13.57
2019-03-13T09:07:02.166Z,12.17
2019-03-13T09:09:41.777Z,9.00
2019-03-13T09:12:23.666Z,11.63
2019-03-13T09:15:18.828Z,11.13
2019-03-13T09:18:06.323Z,12.30
2019-03-13T09:20:53.711Z,12.97
2019-03-13T09:23:39.497Z,12.63
2019-03-13T09:26:30.888Z,11.93
2019-03-13T09:29:34.747Z,11.57
2019-03-13T09:32:27.642Z,12.63
2019-03-13T09:35:18.808Z,10.10
2019-03-13T09:38:12.137Z,10.80
2019-03-13T09:40:54.606Z,13.13
2019-03-13T09:43:45.939Z,12.90
2019-03-13T09:46:46.637Z,12.40
2019-03-13T09:49:24.964Z,12.30
2019-03-13T09:52:19.119Z,12.17
2019-03-13T09:55:13.539Z,10.73
2019-03-13T09:58:09.750Z,11.43
2019-03-13T10:01:04.409Z,14.03
2019-03-13T10:03:52.757Z,18.33
2019-03-13T10:06:32.308Z,14.67
2019-03-13T10:09:13.282Z,11.13
2019-03-13T10:12:13.610Z,11.17
2019-03-13T10:15:13.976Z,10.90
2019-03-13T10:18:10.883Z,9.37
2019-03-13T10:20:58.991Z,15.27
2019-03-13T10:23:43.532Z,10.53
2019-03-13T10:26:34.684Z,6.27
2019-03-13T10:29:12.771Z,9.57
2019-03-13T10:32:04.228Z,12.70
2019-03-13T10:35:01.667Z,8.37
2019-03-13T10:37:59.377Z,11.43
2019-03-13T10:40:47.561Z,6.67
2019-03-13T10:43:26.909Z,7.93
2019-03-13T10:46:05.739Z,8.93
2019-03-13T10:49:03.216Z,11.20
2019-03-13T10:51:43.135Z,10.93
2019-03-13T10:54:40.842Z,8.40
2019-03-13T10:57:27.877Z,8.87
2019-03-13T11:00:09.010Z,11.40
2019-03-13T11:02:55.023Z,14.00
2019-03-13T11:05:52.789Z,10.63
2019-03-13T11:08:41.506Z,16.63
2019-03-13T11:11:33.057Z,12.27
2019-03-13T11:14:33.791Z,16.27
2019-03-13T11:17:21.092Z,13.00
2019-03-13T11:20:15.956Z,11.00
2019-03-13T11:23:10.545Z,12.23
2019-03-13T11:25:57.504Z,10.60
2019-03-13T11:28:42.579Z,7.80
2019-03-13T11:31:27.895Z,12.20
2019-03-13T11:34:13.344Z,14.10
2019-03-13T11:37:01.787Z,10.37
2019-03-13T11:40:02.525Z,10.03
2019-03-13T11:42:53.267Z,7.03
2019-03-13T11:45:38.967Z,13.10
2019-03-13T11:48:26.185Z,7.80
2019-03-13T11:51:08.036Z,8.77
2019-03-13T11:53:56.535Z,9.43
2019-03-13T11:56:44.096Z,9.67
2019-03-13T11:59:50.735Z,10.47
2019-03-13T12:02:37.573Z,8.00
2019-03-13T12:05:25.765Z,8.63
2019-03-13T12:08:14.152Z,10.43
2019-03-13T12:11:04.515Z,12.67
2019-03-13T12:13:52.919Z,10.87
2019-03-13T12:16:40.125Z,9.00
2019-03-13T12:19:30.283Z,10.37
2019-03-13T12:22:25.078Z,16.30
2019-03-13T12:25:25.732Z,11.77
2019-03-13T12:28:15.677Z,9.73
2019-03-13T12:30:58.651Z,11.00
2019-03-13T12:33:45.721Z,17.77
2019-03-13T12:36:38.529Z,11.93
2019-03-13T12:39:27.305Z,18.97
2019-03-13T12:42:18.567Z,12.07
2019-03-13T12:45:01.963Z,14.20
2019-03-13T12:47:50.362Z,14.37
2019-03-13T12:50:44.594Z,14.37
2019-03-13T12:53:22.850Z,18.13
2019-03-13T12:56:09.988Z,14.80
2019-03-13T12:58:57.277Z,16.63
2019-03-13T13:01:51.423Z,15.73
2019-03-13T13:04:39.759Z,18.20
2019-03-13T13:07:26.897Z,20.87
2019-03-13T13:10:30.625Z,20.17
2019-03-13T13:13:17.473Z,19.50
2019-03-13T13:16:08.912Z,16.10
2019-03-13T13:18:55.352Z,13.67
2019-03-13T13:21:24.991Z,16.47
2019-03-13T13:23:54.594Z,16.20
2019-03-13T13:26:24.069Z,19.83
2019-03-13T13:28:53.515Z,16.50
2019-03-13T13:31:23.035Z,16.80
2019-03-13T13:33:52.577Z,13.03
2019-03-13T13:36:22.118Z,13.10
2019-03-13T13:38:51.698Z,19.83
2019-03-13T13:41:21.183Z,11.40
2019-03-13T13:43:50.816Z,11.63
2019-03-13T13:46:28.596Z,9.77
2019-03-13T13:48:57.458Z,12.47
2019-03-13T13:51:26.907Z,11.50
2019-03-13T13:53:56.418Z,9.80
2019-03-13T13:56:25.874Z,12.07
2019-03-13T13:58:55.364Z,9.17
2019-03-13T14:01:24.781Z,11.77
2019-03-13T14:03:54.241Z,9.10
2019-03-13T14:06:24.037Z,13.17
2019-03-13T14:08:53.750Z,9.53
2019-03-13T14:11:23.202Z,12.00
2019-03-13T14:13:52.689Z,7.47
2019-03-13T14:16:22.592Z,11.53
2019-03-13T14:18:51.457Z,10.60
2019-03-13T14:21:23.635Z,9.17
2019-03-13T14:23:53.093Z,9.13
2019-03-13T14:26:22.567Z,9.83
2019-03-13T14:28:52.059Z,9.70
2019-03-13T14:31:21.523Z,8.63
2019-03-13T14:33:51.386Z,9.70
2019-03-13T14:36:20.798Z,8.00
2019-03-13T14:38:50.366Z,6.77
2019-03-13T14:41:20.210Z,6.53
2019-03-13T14:43:49.698Z,9.03
2019-03-13T14:46:19.303Z,9.00
2019-03-13T14:48:48.744Z,7.33
2019-03-13T14:51:18.183Z,4.90
2019-03-13T14:53:47.667Z,4.43
2019-03-13T14:56:17.119Z,5.70
2019-03-13T14:58:46.560Z,5.60
2019-03-13T15:01:16.017Z,5.30
2019-03-13T15:03:45.495Z,7.20
2019-03-13T15:06:14.949Z,6.20
2019-03-13T15:08:44.355Z,5.07
2019-03-13T15:11:13.824Z,6.67
2019-03-13T15:13:43.251Z,4.27
2019-03-13T15:16:12.783Z,5.50
2019-03-13T15:18:42.214Z,6.57
2019-03-13T15:21:11.698Z,6.90
2019-03-13T15:23:41.159Z,7.50
2019-03-13T15:26:10.634Z,7.23
2019-03-13T15:28:40.139Z,7.13
2019-03-13T15:31:09.647Z,6.50
2019-03-13T15:33:39.125Z,7.10
2019-03-13T15:36:08.567Z,10.07
2019-03-13T15:38:38.035Z,11.30
2019-03-13T15:41:07.602Z,15.00
2019-03-13T15:43:37.034Z,10.43
2019-03-13T15:46:06.533Z,11.27
2019-03-13T15:48:36.003Z,10.87
2019-03-13T15:51:05.472Z,12.93
2019-03-13T15:53:34.914Z,10.10
2019-03-13T15:56:05.950Z,7.67
2019-03-13T15:58:35.406Z,11.27
2019-03-13T16:01:06.209Z,9.43
2019-03-13T16:03:35.692Z,11.33
2019-03-13T16:06:05.135Z,11.57
2019-03-13T16:08:34.596Z,9.83
2019-03-13T16:11:04.050Z,14.47
2019-03-13T16:13:33.505Z,9.53
2019-03-13T16:16:03.039Z,11.90
2019-03-13T16:18:32.559Z,12.30
2019-03-13T16:21:02.025Z,11.50
2019-03-13T16:23:31.530Z,11.30
2019-03-13T16:26:00.971Z,15.40
2019-03-13T16:28:30.483Z,7.67
2019-03-13T16:30:59.967Z,12.73
2019-03-13T16:33:29.441Z,10.40
2019-03-13T16:35:58.889Z,20.17
2019-03-13T16:38:28.340Z,7.43
2019-03-13T16:40:57.811Z,12.63
2019-03-13T16:43:27.253Z,13.60
2019-03-13T16:45:56.080Z,11.70
2019-03-13T16:48:25.567Z,14.40
2019-03-13T16:50:55.045Z,12.43
2019-03-13T16:53:24.575Z,13.10
2019-03-13T16:55:54.078Z,15.50
2019-03-13T16:58:23.502Z,19.33
2019-03-13T17:00:52.994Z,17.83
2019-03-13T17:03:22.442Z,14.40
2019-03-13T17:05:51.843Z,13.37
2019-03-13T17:08:21.357Z,15.37
2019-03-13T17:10:50.820Z,15.77
2019-03-13T17:13:20.323Z,14.90
2019-03-13T17:15:49.827Z,12.03
2019-03-13T17:18:19.307Z,14.90
2019-03-13T17:20:48.758Z,19.73
2019-03-13T17:23:18.235Z,11.17
2019-03-13T17:25:47.686Z,18.70
2019-03-13T17:28:17.162Z,15.33
2019-03-13T17:30:46.652Z,10.20
2019-03-13T17:33:16.097Z,6.83
2019-03-13T17:35:44.958Z,5.13
2019-03-13T17:38:14.414Z,8.77
2019-03-13T17:40:43.876Z,6.33
2019-03-13T17:43:13.460Z,4.93
2019-03-13T17:45:42.909Z,5.87
2019-03-13T17:48:12.367Z,6.80
2019-03-13T17:50:41.844Z,7.07
2019-03-13T17:53:11.286Z,6.67
2019-03-13T17:55:40.745Z,8.00
2019-03-13T17:58:10.234Z,11.97
2019-03-13T18:00:50.824Z,9.40
2019-03-13T18:03:21.029Z,13.47
2019-03-13T18:05:50.503Z,11.10
2019-03-13T18:08:19.959Z,19.60
2019-03-13T18:10:49.496Z,18.77
2019-03-13T18:13:18.949Z,25.20
2019-03-13T18:15:48.449Z,25.73
2019-03-13T18:18:17.923Z,18.50
2019-03-13T18:20:47.406Z,26.93
2019-03-13T18:23:16.854Z,19.43
2019-03-13T18:25:46.312Z,16.37
2019-03-13T18:28:15.735Z,17.47
2019-03-13T18:30:45.279Z,20.07
2019-03-13T18:33:14.750Z,19.37
2019-03-13T18:35:44.277Z,25.20
2019-03-13T18:38:13.815Z,18.87
2019-03-13T18:40:43.281Z,20.63
2019-03-13T18:43:12.743Z,16.30
2019-03-13T18:45:42.227Z,19.83
2019-03-13T18:48:11.734Z,19.17
2019-03-13T18:50:41.259Z,18.93
2019-03-13T18:53:10.798Z,19.83
2019-03-13T18:55:40.313Z,21.27
2019-03-13T18:58:09.791Z,15.87
2019-03-13T19:00:39.379Z,21.97
2019-03-13T19:03:08.979Z,21.83
2019-03-13T19:05:38.454Z,22.00
2019-03-13T19:08:09.209Z,21.70
2019-03-13T19:10:38.334Z,21.53
2019-03-13T19:13:07.946Z,21.27
2019-03-13T19:15:40.011Z,16.63
2019-03-13T19:18:08.671Z,24.73
2019-03-13T19:20:38.254Z,18.40
2019-03-13T19:23:07.816Z,21.23
2019-03-13T19:25:37.247Z,17.23
2019-03-13T19:28:06.738Z,14.33
2019-03-13T19:30:37.763Z,14.20
2019-03-13T19:33:07.707Z,9.80
2019-03-13T19:35:37.192Z,9.97
2019-03-13T19:38:06.738Z,16.80
2019-03-13T19:40:36.426Z,17.60
2019-03-13T19:43:06.058Z,17.23
2019-03-13T19:45:36.026Z,9.83
2019-03-13T19:48:05.704Z,9.70
2019-03-13T19:50:35.147Z,12.87
2019-03-13T19:53:04.715Z,13.03
2019-03-13T19:55:34.185Z,14.90
2019-03-13T19:58:03.624Z,16.57
2019-03-13T20:00:33.128Z,12.17
2019-03-13T20:03:02.618Z,16.87
2019-03-13T20:05:44.189Z,9.90
2019-03-13T20:08:03.187Z,13.53
2019-03-13T20:10:32.846Z,13.20
2019-03-13T20:13:02.240Z,18.10
2019-03-13T20:15:31.992Z,18.87
2019-03-13T20:18:01.512Z,11.70
2019-03-13T20:20:32.284Z,16.07
2019-03-13T20:23:02.234Z,17.57
2019-03-13T20:25:31.828Z,11.90
2019-03-13T20:28:01.216Z,16.83
2019-03-13T20:30:30.806Z,14.40
2019-03-13T20:33:00.237Z,14.30
2019-03-13T20:35:29.728Z,18.70
2019-03-13T20:37:59.185Z,15.73
2019-03-13T20:40:28.945Z,17.27
2019-03-13T20:43:01.792Z,15.43
2019-03-13T20:45:29.721Z,14.30
2019-03-13T20:47:59.395Z,17.00
2019-03-13T20:50:36.599Z,12.57
2019-03-13T20:52:59.424Z,13.37
2019-03-13T20:55:28.923Z,21.33
2019-03-13T20:57:58.569Z,18.93
2019-03-13T21:00:28.293Z,18.70
2019-03-13T21:02:57.754Z,14.87
2019-03-13T21:05:27.254Z,13.50
2019-03-13T21:07:56.740Z,21.23
2019-03-13T21:10:26.237Z,14.10
2019-03-13T21:12:55.681Z,19.27
2019-03-13T21:15:25.169Z,19.27
2019-03-13T21:17:54.671Z,18.07
2019-03-13T21:20:24.328Z,13.40
2019-03-13T21:22:53.884Z,14.53
2019-03-13T21:25:23.505Z,20.40
2019-03-13T21:27:53.041Z,20.30
2019-03-13T21:30:23.537Z,20.03
2019-03-13T21:32:53.039Z,22.20
2019-03-13T21:35:22.569Z,20.17
2019-03-13T21:37:52.138Z,19.63
2019-03-13T21:40:21.962Z,16.70
2019-03-13T21:42:54.147Z,25.27
2019-03-13T21:45:23.254Z,14.90
2019-03-13T21:47:52.857Z,21.27
2019-03-13T21:50:22.617Z,16.17
2019-03-13T21:52:52.111Z,23.80
2019-03-13T21:55:21.653Z,19.77
2019-03-13T21:57:52.278Z,17.93
2019-03-13T22:00:23.178Z,27.13
2019-03-13T22:02:52.678Z,16.47
2019-03-13T22:05:26.172Z,25.33
2019-03-13T22:07:55.447Z,12.73
2019-03-13T22:10:26.426Z,18.67
2019-03-13T22:12:57.049Z,21.60
2019-03-13T22:15:27.133Z,23.63
2019-03-13T22:17:56.553Z,18.10
2019-03-13T22:20:26.044Z,18.00
2019-03-13T22:22:55.503Z,15.23
2019-03-13T22:25:24.947Z,16.23
2019-03-13T22:27:54.441Z,18.07
2019-03-13T22:30:24.148Z,14.57
2019-03-13T22:32:53.860Z,19.17
2019-03-13T22:35:23.367Z,13.47
2019-03-13T22:37:52.867Z,17.37
2019-03-13T22:40:22.329Z,13.30
2019-03-13T22:42:51.800Z,21.10
2019-03-13T22:45:21.480Z,18.30
2019-03-13T22:47:50.961Z,23.50
2019-03-13T22:50:20.506Z,18.53
2019-03-13T22:52:49.966Z,24.83
2019-03-13T22:55:19.418Z,29.97
2019-03-13T22:57:48.969Z,30.43
2019-03-13T23:00:51.143Z,22.47
2019-03-13T23:03:22.178Z,24.57
2019-03-13T23:05:51.619Z,22.53
2019-03-13T23:08:21.217Z,23.20
2019-03-13T23:10:50.679Z,23.93
2019-03-13T23:13:20.219Z,26.03
2019-03-13T23:15:49.720Z,28.67
2019-03-13T23:18:18.759Z,27.93
2019-03-13T23:20:48.250Z,23.73
2019-03-13T23:23:17.797Z,22.73
2019-03-13T23:25:47.260Z,19.33
2019-03-13T23:28:16.732Z,21.33
2019-03-13T23:30:46.425Z,16.10
2019-03-13T23:33:15.941Z,16.47
2019-03-13T23:35:45.363Z,22.70
2019-03-13T23:38:14.941Z,16.47
2019-03-13T23:40:44.427Z,14.70
2019-03-13T23:43:13.882Z,19.80
2019-03-13T23:45:43.378Z,14.83
2019-03-13T23:48:12.882Z,16.37
2019-03-13T23:50:42.580Z,16.80
2019-03-13T23:53:12.016Z,31.17
2019-03-13T23:55:41.436Z,24.90
2019-03-13T23:58:11.632Z,17.60
